sensor_id;sensor_type;location;lat;lon;timestamp;P1;durP1;ratioP1;P2;durP2;ratioP2
2868;SDS011;1442;47.448;8.582;2022-11-20T00:00:16;6.03;;;3.38;;
2868;SDS011;1442;47.448;8.582;2022-11-20T00:02:43;7.65;;;3.78;;
2868;SDS011;1442;47.448;8.582;2022-11-20T00:05:12;11.77;;;4.07;;
2868;SDS011;1442;47.448;8.582;2022-11-20T00:07:39;5.15;;;3.58;;
2868;SDS011;1442;47.448;8.582;2022-11-20T00:10:06;7.43;;;4.53;;
2868;SDS011;1442;47.448;8.582;2022-11-20T00:12:33;7.88;;;3.97;;
2868;SDS011;1442;47.448;8.582;2022-11-20T00:15:00;10.00;;;4.25;;
2868;SDS011;1442;47.448;8.582;2022-11-20T00:17:27;7.78;;;4.13;;
2868;SDS011;1442;47.448;8.582;2022-11-20T00:19:54;11.68;;;4.60;;
2868;SDS011;1442;47.448;8.582;2022-11-20T00:22:23;14.60;;;5.38;;
2868;SDS011;1442;47.448;8.582;2022-11-20T00:24:50;7.93;;;5.22;;
2868;SDS011;1442;47.448;8.582;2022-11-20T00:27:17;8.95;;;5.53;;
2868;SDS011;1442;47.448;8.582;2022-11-20T00:29:44;9.63;;;4.43;;
2868;SDS011;1442;47.448;8.582;2022-11-20T00:32:11;6.57;;;3.38;;
2868;SDS011;1442;47.448;8.582;2022-11-20T00:34:38;5.28;;;3.30;;
2868;SDS011;1442;47.448;8.582;2022-11-20T00:37:05;6.80;;;4.13;;
2868;SDS011;1442;47.448;8.582;2022-11-20T00:39:34;4.10;;;2.90;;
2868;SDS011;1442;47.448;8.582;2022-11-20T00:42:01;4.43;;;3.63;;
2868;SDS011;1442;47.448;8.582;2022-11-20T00:44:28;8.13;;;4.72;;
2868;SDS011;1442;47.448;8.582;2022-11-20T00:46:55;7.72;;;3.70;;
2868;SDS011;1442;47.448;8.582;2022-11-20T00:49:22;10.43;;;3.90;;
2868;SDS011;1442;47.448;8.582;2022-11-20T00:51:49;7.18;;;3.95;;
2868;SDS011;1442;47.448;8.582;2022-11-20T00:54:16;10.25;;;4.00;;
2868;SDS011;1442;47.448;8.582;2022-11-20T00:56:45;7.57;;;3.80;;
2868;SDS011;1442;47.448;8.582;2022-11-20T00:59:12;6.28;;;4.30;;
2868;SDS011;1442;47.448;8.582;2022-11-20T01:01:39;5.47;;;3.90;;
2868;SDS011;1442;47.448;8.582;2022-11-20T01:04:06;6.05;;;3.60;;
2868;SDS011;1442;47.448;8.582;2022-11-20T01:06:34;7.18;;;3.75;;
2868;SDS011;1442;47.448;8.582;2022-11-20T01:09:02;6.85;;;3.97;;
2868;SDS011;1442;47.448;8.582;2022-11-20T01:11:30;5.85;;;3.67;;
2868;SDS011;1442;47.448;8.582;2022-11-20T01:13:59;6.65;;;3.83;;
2868;SDS011;1442;47.448;8.582;2022-11-20T01:16:27;7.65;;;4.45;;
2868;SDS011;1442;47.448;8.582;2022-11-20T01:18:56;6.38;;;4.00;;
2868;SDS011;1442;47.448;8.582;2022-11-20T01:21:24;4.43;;;3.35;;
2868;SDS011;1442;47.448;8.582;2022-11-20T01:23:51;5.25;;;3.53;;
2868;SDS011;1442;47.448;8.582;2022-11-20T01:26:20;7.70;;;4.20;;
2868;SDS011;1442;47.448;8.582;2022-11-20T01:28:48;9.23;;;4.18;;
2868;SDS011;1442;47.448;8.582;2022-11-20T01:31:18;7.40;;;3.78;;
2868;SDS011;1442;47.448;8.582;2022-11-20T01:33:46;7.53;;;3.95;;
2868;SDS011;1442;47.448;8.582;2022-11-20T01:36:14;7.45;;;3.60;;
2868;SDS011;1442;47.448;8.582;2022-11-20T01:38:41;5.30;;;3.47;;
2868;SDS011;1442;47.448;8.582;2022-11-20T01:41:09;5.13;;;3.08;;
2868;SDS011;1442;47.448;8.582;2022-11-20T01:43:56;6.03;;;3.10;;
2868;SDS011;1442;47.448;8.582;2022-11-20T01:46:24;5.57;;;2.78;;
2868;SDS011;1442;47.448;8.582;2022-11-20T01:48:52;3.75;;;2.60;;
2868;SDS011;1442;47.448;8.582;2022-11-20T01:51:23;4.03;;;2.80;;
2868;SDS011;1442;47.448;8.582;2022-11-20T01:53:51;4.72;;;2.67;;
2868;SDS011;1442;47.448;8.582;2022-11-20T01:56:18;6.25;;;3.17;;
2868;SDS011;1442;47.448;8.582;2022-11-20T01:58:47;3.70;;;2.45;;
2868;SDS011;1442;47.448;8.582;2022-11-20T02:01:15;5.35;;;2.40;;
2868;SDS011;1442;47.448;8.582;2022-11-20T02:03:44;6.60;;;3.05;;
2868;SDS011;1442;47.448;8.582;2022-11-20T02:06:12;6.18;;;2.65;;
2868;SDS011;1442;47.448;8.582;2022-11-20T02:08:41;3.53;;;2.45;;
2868;SDS011;1442;47.448;8.582;2022-11-20T02:11:08;5.57;;;2.47;;
2868;SDS011;1442;47.448;8.582;2022-11-20T02:13:35;4.63;;;2.35;;
2868;SDS011;1442;47.448;8.582;2022-11-20T02:16:12;4.35;;;2.42;;
2868;SDS011;1442;47.448;8.582;2022-11-20T02:18:40;5.35;;;2.90;;
2868;SDS011;1442;47.448;8.582;2022-11-20T02:21:09;7.43;;;2.58;;
2868;SDS011;1442;47.448;8.582;2022-11-20T02:23:39;5.35;;;2.92;;
2868;SDS011;1442;47.448;8.582;2022-11-20T02:26:12;5.40;;;3.03;;
2868;SDS011;1442;47.448;8.582;2022-11-20T02:28:40;7.10;;;3.35;;
2868;SDS011;1442;47.448;8.582;2022-11-20T02:31:08;5.82;;;2.88;;
2868;SDS011;1442;47.448;8.582;2022-11-20T02:33:35;7.40;;;2.92;;
2868;SDS011;1442;47.448;8.582;2022-11-20T02:36:02;4.95;;;2.90;;
2868;SDS011;1442;47.448;8.582;2022-11-20T02:38:29;7.78;;;2.75;;
2868;SDS011;1442;47.448;8.582;2022-11-20T02:40:56;4.00;;;3.15;;
2868;SDS011;1442;47.448;8.582;2022-11-20T02:43:25;5.03;;;3.33;;
2868;SDS011;1442;47.448;8.582;2022-11-20T02:45:52;4.97;;;2.55;;
2868;SDS011;1442;47.448;8.582;2022-11-20T02:48:19;5.45;;;2.45;;
2868;SDS011;1442;47.448;8.582;2022-11-20T02:50:46;5.07;;;3.15;;
2868;SDS011;1442;47.448;8.582;2022-11-20T02:53:13;3.60;;;2.53;;
2868;SDS011;1442;47.448;8.582;2022-11-20T02:55:40;3.25;;;2.38;;
2868;SDS011;1442;47.448;8.582;2022-11-20T02:58:07;3.95;;;2.40;;
2868;SDS011;1442;47.448;8.582;2022-11-20T03:00:36;5.15;;;2.22;;
2868;SDS011;1442;47.448;8.582;2022-11-20T03:03:03;1.95;;;1.80;;
2868;SDS011;1442;47.448;8.582;2022-11-20T03:05:30;2.47;;;1.90;;
2868;SDS011;1442;47.448;8.582;2022-11-20T03:07:57;2.08;;;1.85;;
2868;SDS011;1442;47.448;8.582;2022-11-20T03:10:24;5.43;;;2.25;;
2868;SDS011;1442;47.448;8.582;2022-11-20T03:12:52;9.73;;;2.15;;
2868;SDS011;1442;47.448;8.582;2022-11-20T03:15:20;6.70;;;2.28;;
2868;SDS011;1442;47.448;8.582;2022-11-20T03:17:48;5.50;;;2.45;;
2868;SDS011;1442;47.448;8.582;2022-11-20T03:20:15;4.20;;;2.40;;
2868;SDS011;1442;47.448;8.582;2022-11-20T03:22:42;3.55;;;1.80;;
2868;SDS011;1442;47.448;8.582;2022-11-20T03:25:10;3.00;;;1.92;;
2868;SDS011;1442;47.448;8.582;2022-11-20T03:27:37;2.47;;;1.67;;
2868;SDS011;1442;47.448;8.582;2022-11-20T03:30:04;4.35;;;1.83;;
2868;SDS011;1442;47.448;8.582;2022-11-20T03:32:31;2.42;;;1.67;;
2868;SDS011;1442;47.448;8.582;2022-11-20T03:35:00;4.15;;;2.00;;
2868;SDS011;1442;47.448;8.582;2022-11-20T03:37:27;2.58;;;1.60;;
2868;SDS011;1442;47.448;8.582;2022-11-20T03:39:54;2.70;;;2.03;;
2868;SDS011;1442;47.448;8.582;2022-11-20T03:42:21;4.43;;;1.77;;
2868;SDS011;1442;47.448;8.582;2022-11-20T03:45:06;2.90;;;1.90;;
2868;SDS011;1442;47.448;8.582;2022-11-20T03:47:33;2.25;;;1.60;;
2868;SDS011;1442;47.448;8.582;2022-11-20T03:50:02;2.70;;;1.75;;
2868;SDS011;1442;47.448;8.582;2022-11-20T03:52:29;3.13;;;1.92;;
2868;SDS011;1442;47.448;8.582;2022-11-20T03:54:56;2.05;;;1.75;;
2868;SDS011;1442;47.448;8.582;2022-11-20T03:57:23;3.78;;;2.05;;
2868;SDS011;1442;47.448;8.582;2022-11-20T03:59:50;3.53;;;1.70;;
2868;SDS011;1442;47.448;8.582;2022-11-20T04:02:17;3.65;;;1.80;;
2868;SDS011;1442;47.448;8.582;2022-11-20T04:04:45;4.35;;;1.88;;
2868;SDS011;1442;47.448;8.582;2022-11-20T04:07:13;7.53;;;3.63;;
2868;SDS011;1442;47.448;8.582;2022-11-20T04:09:40;3.58;;;2.22;;
2868;SDS011;1442;47.448;8.582;2022-11-20T04:12:07;5.25;;;2.03;;
2868;SDS011;1442;47.448;8.582;2022-11-20T04:14:34;3.15;;;1.98;;
2868;SDS011;1442;47.448;8.582;2022-11-20T04:17:01;4.07;;;1.95;;
2868;SDS011;1442;47.448;8.582;2022-11-20T04:19:30;3.30;;;2.13;;
2868;SDS011;1442;47.448;8.582;2022-11-20T04:21:57;6.95;;;1.80;;
2868;SDS011;1442;47.448;8.582;2022-11-20T04:24:25;4.25;;;1.85;;
2868;SDS011;1442;47.448;8.582;2022-11-20T04:26:52;4.10;;;1.73;;
2868;SDS011;1442;47.448;8.582;2022-11-20T04:29:19;3.10;;;1.98;;
2868;SDS011;1442;47.448;8.582;2022-11-20T04:31:47;3.13;;;1.65;;
2868;SDS011;1442;47.448;8.582;2022-11-20T04:34:14;2.63;;;1.83;;
2868;SDS011;1442;47.448;8.582;2022-11-20T04:36:41;3.97;;;1.70;;
2868;SDS011;1442;47.448;8.582;2022-11-20T04:39:11;3.78;;;1.50;;
2868;SDS011;1442;47.448;8.582;2022-11-20T04:41:40;2.50;;;1.52;;
2868;SDS011;1442;47.448;8.582;2022-11-20T04:44:07;2.97;;;1.63;;
2868;SDS011;1442;47.448;8.582;2022-11-20T04:46:35;5.60;;;2.00;;
2868;SDS011;1442;47.448;8.582;2022-11-20T04:49:02;6.10;;;2.13;;
2868;SDS011;1442;47.448;8.582;2022-11-20T04:51:30;5.43;;;1.83;;
2868;SDS011;1442;47.448;8.582;2022-11-20T04:53:57;2.22;;;1.55;;
2868;SDS011;1442;47.448;8.582;2022-11-20T04:56:24;3.35;;;1.83;;
2868;SDS011;1442;47.448;8.582;2022-11-20T04:58:52;2.83;;;1.83;;
2868;SDS011;1442;47.448;8.582;2022-11-20T05:01:20;2.35;;;1.90;;
2868;SDS011;1442;47.448;8.582;2022-11-20T05:03:48;4.78;;;2.20;;
2868;SDS011;1442;47.448;8.582;2022-11-20T05:06:16;3.42;;;1.70;;
2868;SDS011;1442;47.448;8.582;2022-11-20T05:08:43;3.42;;;2.00;;
2868;SDS011;1442;47.448;8.582;2022-11-20T05:11:11;4.10;;;1.63;;
2868;SDS011;1442;47.448;8.582;2022-11-20T05:13:39;3.53;;;1.98;;
2868;SDS011;1442;47.448;8.582;2022-11-20T05:16:08;4.85;;;1.90;;
2868;SDS011;1442;47.448;8.582;2022-11-20T05:18:35;2.08;;;1.80;;
2868;SDS011;1442;47.448;8.582;2022-11-20T05:21:03;2.33;;;1.85;;
2868;SDS011;1442;47.448;8.582;2022-11-20T05:23:31;2.15;;;1.77;;
2868;SDS011;1442;47.448;8.582;2022-11-20T05:25:58;5.63;;;1.88;;
2868;SDS011;1442;47.448;8.582;2022-11-20T05:28:26;4.13;;;2.30;;
2868;SDS011;1442;47.448;8.582;2022-11-20T05:30:53;3.78;;;2.63;;
2868;SDS011;1442;47.448;8.582;2022-11-20T05:33:22;4.38;;;2.55;;
2868;SDS011;1442;47.448;8.582;2022-11-20T05:35:49;7.15;;;2.42;;
2868;SDS011;1442;47.448;8.582;2022-11-20T05:38:16;4.03;;;2.60;;
2868;SDS011;1442;47.448;8.582;2022-11-20T05:40:43;7.30;;;2.70;;
2868;SDS011;1442;47.448;8.582;2022-11-20T05:43:10;3.45;;;2.40;;
2868;SDS011;1442;47.448;8.582;2022-11-20T05:45:37;6.68;;;3.13;;
2868;SDS011;1442;47.448;8.582;2022-11-20T05:48:04;6.20;;;2.50;;
2868;SDS011;1442;47.448;8.582;2022-11-20T05:50:33;4.18;;;2.83;;
2868;SDS011;1442;47.448;8.582;2022-11-20T05:53:00;6.57;;;2.38;;
2868;SDS011;1442;47.448;8.582;2022-11-20T05:55:27;4.20;;;2.22;;
2868;SDS011;1442;47.448;8.582;2022-11-20T05:57:54;5.13;;;3.03;;
2868;SDS011;1442;47.448;8.582;2022-11-20T06:00:21;6.00;;;2.95;;
2868;SDS011;1442;47.448;8.582;2022-11-20T06:02:49;4.35;;;2.47;;
2868;SDS011;1442;47.448;8.582;2022-11-20T06:05:16;4.07;;;2.35;;
2868;SDS011;1442;47.448;8.582;2022-11-20T06:07:44;5.45;;;2.30;;
2868;SDS011;1442;47.448;8.582;2022-11-20T06:10:11;4.00;;;2.13;;
2868;SDS011;1442;47.448;8.582;2022-11-20T06:12:38;6.07;;;2.08;;
2868;SDS011;1442;47.448;8.582;2022-11-20T06:15:06;6.05;;;1.98;;
2868;SDS011;1442;47.448;8.582;2022-11-20T06:17:33;8.15;;;2.42;;
2868;SDS011;1442;47.448;8.582;2022-11-20T06:20:00;4.50;;;2.05;;
2868;SDS011;1442;47.448;8.582;2022-11-20T06:22:27;2.60;;;1.90;;
2868;SDS011;1442;47.448;8.582;2022-11-20T06:24:56;3.70;;;1.85;;
2868;SDS011;1442;47.448;8.582;2022-11-20T06:27:23;3.67;;;2.03;;
2868;SDS011;1442;47.448;8.582;2022-11-20T06:29:50;3.10;;;2.00;;
2868;SDS011;1442;47.448;8.582;2022-11-20T06:32:17;5.85;;;1.90;;
2868;SDS011;1442;47.448;8.582;2022-11-20T06:34:44;5.75;;;2.20;;
2868;SDS011;1442;47.448;8.582;2022-11-20T06:37:11;5.25;;;2.35;;
2868;SDS011;1442;47.448;8.582;2022-11-20T06:39:38;7.43;;;2.30;;
2868;SDS011;1442;47.448;8.582;2022-11-20T06:42:06;2.85;;;2.15;;
2868;SDS011;1442;47.448;8.582;2022-11-20T06:44:33;5.88;;;2.35;;
2868;SDS011;1442;47.448;8.582;2022-11-20T06:47:01;2.83;;;1.95;;
2868;SDS011;1442;47.448;8.582;2022-11-20T06:49:28;3.80;;;2.17;;
2868;SDS011;1442;47.448;8.582;2022-11-20T06:51:55;2.70;;;2.22;;
2868;SDS011;1442;47.448;8.582;2022-11-20T06:54:22;5.43;;;1.85;;
2868;SDS011;1442;47.448;8.582;2022-11-20T06:56:49;3.90;;;2.03;;
2868;SDS011;1442;47.448;8.582;2022-11-20T06:59:17;3.25;;;2.05;;
2868;SDS011;1442;47.448;8.582;2022-11-20T07:01:44;3.08;;;2.13;;
2868;SDS011;1442;47.448;8.582;2022-11-20T07:04:11;4.40;;;2.05;;
2868;SDS011;1442;47.448;8.582;2022-11-20T07:06:39;2.60;;;1.90;;
2868;SDS011;1442;47.448;8.582;2022-11-20T07:09:06;4.03;;;1.90;;
2868;SDS011;1442;47.448;8.582;2022-11-20T07:11:33;3.55;;;2.00;;
2868;SDS011;1442;47.448;8.582;2022-11-20T07:14:00;8.18;;;2.30;;
2868;SDS011;1442;47.448;8.582;2022-11-20T07:16:28;5.63;;;2.22;;
2868;SDS011;1442;47.448;8.582;2022-11-20T07:18:55;6.30;;;2.28;;
2868;SDS011;1442;47.448;8.582;2022-11-20T07:21:22;4.32;;;2.30;;
2868;SDS011;1442;47.448;8.582;2022-11-20T07:23:49;2.58;;;1.80;;
2868;SDS011;1442;47.448;8.582;2022-11-20T07:26:17;6.45;;;2.30;;
2868;SDS011;1442;47.448;8.582;2022-11-20T07:28:44;2.33;;;1.60;;
2868;SDS011;1442;47.448;8.582;2022-11-20T07:31:11;3.00;;;1.90;;
2868;SDS011;1442;47.448;8.582;2022-11-20T07:33:40;2.47;;;1.83;;
2868;SDS011;1442;47.448;8.582;2022-11-20T07:36:07;6.15;;;1.75;;
2868;SDS011;1442;47.448;8.582;2022-11-20T07:38:34;3.65;;;1.70;;
2868;SDS011;1442;47.448;8.582;2022-11-20T07:41:01;4.68;;;2.20;;
2868;SDS011;1442;47.448;8.582;2022-11-20T07:43:28;5.60;;;2.28;;
2868;SDS011;1442;47.448;8.582;2022-11-20T07:45:55;2.28;;;1.90;;
2868;SDS011;1442;47.448;8.582;2022-11-20T07:48:23;2.70;;;1.83;;
2868;SDS011;1442;47.448;8.582;2022-11-20T07:50:54;3.00;;;2.00;;
2868;SDS011;1442;47.448;8.582;2022-11-20T07:53:21;6.57;;;1.85;;
2868;SDS011;1442;47.448;8.582;2022-11-20T07:55:48;6.82;;;2.22;;
2868;SDS011;1442;47.448;8.582;2022-11-20T07:58:17;5.50;;;2.58;;
2868;SDS011;1442;47.448;8.582;2022-11-20T08:00:44;3.78;;;2.10;;
2868;SDS011;1442;47.448;8.582;2022-11-20T08:03:11;4.45;;;1.77;;
2868;SDS011;1442;47.448;8.582;2022-11-20T08:05:38;3.08;;;1.77;;
2868;SDS011;1442;47.448;8.582;2022-11-20T08:08:07;2.67;;;1.85;;
2868;SDS011;1442;47.448;8.582;2022-11-20T08:10:34;3.38;;;1.70;;
2868;SDS011;1442;47.448;8.582;2022-11-20T08:13:01;5.22;;;2.00;;
2868;SDS011;1442;47.448;8.582;2022-11-20T08:15:47;3.90;;;1.80;;
2868;SDS011;1442;47.448;8.582;2022-11-20T08:18:16;5.90;;;1.98;;
2868;SDS011;1442;47.448;8.582;2022-11-20T08:20:43;5.57;;;1.50;;
2868;SDS011;1442;47.448;8.582;2022-11-20T08:23:12;1.63;;;1.40;;
2868;SDS011;1442;47.448;8.582;2022-11-20T08:25:39;3.80;;;1.60;;
2868;SDS011;1442;47.448;8.582;2022-11-20T08:28:07;3.22;;;1.70;;
2868;SDS011;1442;47.448;8.582;2022-11-20T08:30:35;1.75;;;1.52;;
2868;SDS011;1442;47.448;8.582;2022-11-20T08:33:03;1.98;;;1.63;;
2868;SDS011;1442;47.448;8.582;2022-11-20T08:35:32;2.58;;;1.40;;
2868;SDS011;1442;47.448;8.582;2022-11-20T08:38:00;2.75;;;1.40;;
2868;SDS011;1442;47.448;8.582;2022-11-20T08:40:28;3.53;;;1.35;;
2868;SDS011;1442;47.448;8.582;2022-11-20T08:42:55;3.40;;;1.30;;
2868;SDS011;1442;47.448;8.582;2022-11-20T08:45:23;2.65;;;1.42;;
2868;SDS011;1442;47.448;8.582;2022-11-20T08:47:50;1.55;;;1.30;;
2868;SDS011;1442;47.448;8.582;2022-11-20T08:50:17;4.05;;;1.30;;
2868;SDS011;1442;47.448;8.582;2022-11-20T08:52:44;9.60;;;1.17;;
2868;SDS011;1442;47.448;8.582;2022-11-20T08:55:12;2.20;;;1.20;;
2868;SDS011;1442;47.448;8.582;2022-11-20T08:57:40;1.63;;;1.10;;
2868;SDS011;1442;47.448;8.582;2022-11-20T09:00:09;3.90;;;1.00;;
2868;SDS011;1442;47.448;8.582;2022-11-20T09:02:37;2.83;;;1.17;;
2868;SDS011;1442;47.448;8.582;2022-11-20T09:05:04;2.55;;;1.20;;
2868;SDS011;1442;47.448;8.582;2022-11-20T09:07:32;3.83;;;1.02;;
2868;SDS011;1442;47.448;8.582;2022-11-20T09:09:59;1.83;;;1.42;;
2868;SDS011;1442;47.448;8.582;2022-11-20T09:12:26;2.85;;;1.30;;
2868;SDS011;1442;47.448;8.582;2022-11-20T09:14:54;3.08;;;1.20;;
2868;SDS011;1442;47.448;8.582;2022-11-20T09:17:21;2.53;;;1.55;;
2868;SDS011;1442;47.448;8.582;2022-11-20T09:19:48;4.07;;;1.58;;
2868;SDS011;1442;47.448;8.582;2022-11-20T09:22:16;3.30;;;1.40;;
2868;SDS011;1442;47.448;8.582;2022-11-20T09:24:43;4.05;;;1.45;;
2868;SDS011;1442;47.448;8.582;2022-11-20T09:27:10;1.42;;;1.20;;
2868;SDS011;1442;47.448;8.582;2022-11-20T09:29:37;1.95;;;1.42;;
2868;SDS011;1442;47.448;8.582;2022-11-20T09:32:05;3.00;;;1.45;;
2868;SDS011;1442;47.448;8.582;2022-11-20T09:34:33;2.40;;;0.90;;
2868;SDS011;1442;47.448;8.582;2022-11-20T09:37:00;1.20;;;1.00;;
2868;SDS011;1442;47.448;8.582;2022-11-20T09:39:27;1.45;;;0.98;;
2868;SDS011;1442;47.448;8.582;2022-11-20T09:44:48;2.88;;;1.10;;
2868;SDS011;1442;47.448;8.582;2022-11-20T09:47:22;3.13;;;1.17;;
2868;SDS011;1442;47.448;8.582;2022-11-20T09:49:56;3.80;;;1.10;;
2868;SDS011;1442;47.448;8.582;2022-11-20T09:52:27;1.33;;;1.10;;
2868;SDS011;1442;47.448;8.582;2022-11-20T09:54:57;2.65;;;1.35;;
2868;SDS011;1442;47.448;8.582;2022-11-20T09:57:25;1.98;;;1.27;;
2868;SDS011;1442;47.448;8.582;2022-11-20T09:59:53;3.22;;;1.40;;
2868;SDS011;1442;47.448;8.582;2022-11-20T10:02:27;1.90;;;1.17;;
2868;SDS011;1442;47.448;8.582;2022-11-20T10:04:56;2.13;;;1.55;;
2868;SDS011;1442;47.448;8.582;2022-11-20T10:07:26;2.58;;;1.33;;
2868;SDS011;1442;47.448;8.582;2022-11-20T10:09:56;1.30;;;1.20;;
2868;SDS011;1442;47.448;8.582;2022-11-20T10:12:25;2.50;;;1.25;;
2868;SDS011;1442;47.448;8.582;2022-11-20T10:15:00;20.77;;;1.70;;
2868;SDS011;1442;47.448;8.582;2022-11-20T10:17:38;2.08;;;1.60;;
2868;SDS011;1442;47.448;8.582;2022-11-20T10:20:14;3.78;;;1.92;;
2868;SDS011;1442;47.448;8.582;2022-11-20T10:22:47;2.42;;;1.45;;
2868;SDS011;1442;47.448;8.582;2022-11-20T10:25:18;4.57;;;1.33;;
2868;SDS011;1442;47.448;8.582;2022-11-20T10:27:52;3.78;;;1.67;;
2868;SDS011;1442;47.448;8.582;2022-11-20T10:30:22;4.60;;;1.30;;
2868;SDS011;1442;47.448;8.582;2022-11-20T10:32:53;2.92;;;1.50;;
2868;SDS011;1442;47.448;8.582;2022-11-20T10:35:22;2.53;;;1.30;;
2868;SDS011;1442;47.448;8.582;2022-11-20T10:37:53;2.85;;;1.30;;
2868;SDS011;1442;47.448;8.582;2022-11-20T10:40:23;0.90;;;0.90;;
2868;SDS011;1442;47.448;8.582;2022-11-20T10:42:52;2.63;;;1.40;;
2868;SDS011;1442;47.448;8.582;2022-11-20T10:45:26;3.70;;;1.40;;
2868;SDS011;1442;47.448;8.582;2022-11-20T10:48:01;1.23;;;1.10;;
2868;SDS011;1442;47.448;8.582;2022-11-20T10:50:34;3.25;;;1.40;;
2868;SDS011;1442;47.448;8.582;2022-11-20T10:53:04;3.60;;;1.60;;
2868;SDS011;1442;47.448;8.582;2022-11-20T10:55:39;3.50;;;1.25;;
2868;SDS011;1442;47.448;8.582;2022-11-20T10:58:08;1.25;;;1.08;;
2868;SDS011;1442;47.448;8.582;2022-11-20T11:00:36;1.98;;;1.15;;
2868;SDS011;1442;47.448;8.582;2022-11-20T11:03:07;2.60;;;1.05;;
2868;SDS011;1442;47.448;8.582;2022-11-20T11:05:41;3.13;;;1.20;;
2868;SDS011;1442;47.448;8.582;2022-11-20T11:08:12;3.30;;;1.08;;
2868;SDS011;1442;47.448;8.582;2022-11-20T11:10:42;1.45;;;0.95;;
2868;SDS011;1442;47.448;8.582;2022-11-20T11:15:40;3.60;;;1.52;;
2868;SDS011;1442;47.448;8.582;2022-11-20T11:18:09;2.58;;;1.33;;
2868;SDS011;1442;47.448;8.582;2022-11-20T11:20:37;3.80;;;1.20;;
2868;SDS011;1442;47.448;8.582;2022-11-20T11:23:04;1.00;;;0.90;;
2868;SDS011;1442;47.448;8.582;2022-11-20T11:25:32;2.35;;;1.05;;
2868;SDS011;1442;47.448;8.582;2022-11-20T11:28:00;1.98;;;1.17;;
2868;SDS011;1442;47.448;8.582;2022-11-20T11:30:28;1.50;;;1.02;;
2868;SDS011;1442;47.448;8.582;2022-11-20T11:33:04;2.30;;;1.23;;
2868;SDS011;1442;47.448;8.582;2022-11-20T11:35:33;1.20;;;1.08;;
2868;SDS011;1442;47.448;8.582;2022-11-20T11:38:04;1.55;;;0.93;;
2868;SDS011;1442;47.448;8.582;2022-11-20T11:40:32;1.03;;;0.73;;
2868;SDS011;1442;47.448;8.582;2022-11-20T11:43:01;0.85;;;0.73;;
2868;SDS011;1442;47.448;8.582;2022-11-20T11:45:29;2.95;;;0.75;;
2868;SDS011;1442;47.448;8.582;2022-11-20T11:47:55;2.33;;;0.80;;
2868;SDS011;1442;47.448;8.582;2022-11-20T11:50:24;1.80;;;0.98;;
2868;SDS011;1442;47.448;8.582;2022-11-20T11:52:58;1.70;;;0.93;;
2868;SDS011;1442;47.448;8.582;2022-11-20T11:55:29;1.25;;;0.68;;
2868;SDS011;1442;47.448;8.582;2022-11-20T11:57:59;1.40;;;0.88;;
2868;SDS011;1442;47.448;8.582;2022-11-20T12:00:28;1.25;;;0.90;;
2868;SDS011;1442;47.448;8.582;2022-11-20T12:02:57;0.70;;;0.68;;
2868;SDS011;1442;47.448;8.582;2022-11-20T12:05:27;2.45;;;0.80;;
2868;SDS011;1442;47.448;8.582;2022-11-20T12:07:56;1.88;;;0.80;;
2868;SDS011;1442;47.448;8.582;2022-11-20T12:10:29;2.45;;;1.25;;
2868;SDS011;1442;47.448;8.582;2022-11-20T12:13:03;3.15;;;1.20;;
2868;SDS011;1442;47.448;8.582;2022-11-20T12:15:31;0.73;;;0.70;;
2868;SDS011;1442;47.448;8.582;2022-11-20T12:17:58;1.40;;;0.80;;
2868;SDS011;1442;47.448;8.582;2022-11-20T12:20:27;2.47;;;0.70;;
2868;SDS011;1442;47.448;8.582;2022-11-20T12:22:56;1.63;;;0.95;;
2868;SDS011;1442;47.448;8.582;2022-11-20T12:25:28;1.10;;;0.97;;
2868;SDS011;1442;47.448;8.582;2022-11-20T12:28:03;2.08;;;1.00;;
2868;SDS011;1442;47.448;8.582;2022-11-20T12:30:32;1.35;;;1.05;;
2868;SDS011;1442;47.448;8.582;2022-11-20T12:33:10;2.08;;;0.90;;
2868;SDS011;1442;47.448;8.582;2022-11-20T12:35:52;2.90;;;0.77;;
2868;SDS011;1442;47.448;8.582;2022-11-20T12:38:32;2.95;;;0.80;;
2868;SDS011;1442;47.448;8.582;2022-11-20T12:41:05;1.65;;;0.80;;
2868;SDS011;1442;47.448;8.582;2022-11-20T12:43:36;1.50;;;0.70;;
2868;SDS011;1442;47.448;8.582;2022-11-20T12:46:24;2.95;;;0.68;;
2868;SDS011;1442;47.448;8.582;2022-11-20T12:49:04;2.00;;;0.80;;
2868;SDS011;1442;47.448;8.582;2022-11-20T12:51:45;1.00;;;0.88;;
2868;SDS011;1442;47.448;8.582;2022-11-20T12:57:03;1.60;;;0.90;;
2868;SDS011;1442;47.448;8.582;2022-11-20T12:59:33;1.75;;;0.80;;
2868;SDS011;1442;47.448;8.582;2022-11-20T13:02:09;1.65;;;0.70;;
2868;SDS011;1442;47.448;8.582;2022-11-20T13:04:45;3.85;;;1.35;;
2868;SDS011;1442;47.448;8.582;2022-11-20T13:07:15;1.70;;;0.88;;
2868;SDS011;1442;47.448;8.582;2022-11-20T13:09:43;1.05;;;1.00;;
2868;SDS011;1442;47.448;8.582;2022-11-20T13:12:13;1.40;;;0.98;;
2868;SDS011;1442;47.448;8.582;2022-11-20T13:14:42;0.90;;;0.85;;
2868;SDS011;1442;47.448;8.582;2022-11-20T13:17:13;0.80;;;0.80;;
2868;SDS011;1442;47.448;8.582;2022-11-20T13:19:41;1.08;;;0.80;;
2868;SDS011;1442;47.448;8.582;2022-11-20T13:22:08;1.67;;;0.80;;
2868;SDS011;1442;47.448;8.582;2022-11-20T13:24:35;2.20;;;1.00;;
2868;SDS011;1442;47.448;8.582;2022-11-20T13:27:04;2.45;;;1.00;;
2868;SDS011;1442;47.448;8.582;2022-11-20T13:29:33;2.90;;;1.52;;
2868;SDS011;1442;47.448;8.582;2022-11-20T13:32:02;1.27;;;1.17;;
2868;SDS011;1442;47.448;8.582;2022-11-20T13:34:29;1.13;;;0.90;;
2868;SDS011;1442;47.448;8.582;2022-11-20T13:36:57;1.55;;;1.10;;
2868;SDS011;1442;47.448;8.582;2022-11-20T13:39:26;1.70;;;0.88;;
2868;SDS011;1442;47.448;8.582;2022-11-20T13:41:54;3.05;;;0.80;;
2868;SDS011;1442;47.448;8.582;2022-11-20T13:44:23;2.60;;;0.80;;
2868;SDS011;1442;47.448;8.582;2022-11-20T13:46:51;0.77;;;0.70;;
2868;SDS011;1442;47.448;8.582;2022-11-20T13:49:22;1.63;;;1.10;;
2868;SDS011;1442;47.448;8.582;2022-11-20T13:51:50;1.17;;;0.82;;
2868;SDS011;1442;47.448;8.582;2022-11-20T13:57:16;2.63;;;1.05;;
2868;SDS011;1442;47.448;8.582;2022-11-20T13:59:51;0.70;;;0.70;;
2868;SDS011;1442;47.448;8.582;2022-11-20T14:02:22;1.85;;;0.95;;
2868;SDS011;1442;47.448;8.582;2022-11-20T14:04:50;1.17;;;0.82;;
2868;SDS011;1442;47.448;8.582;2022-11-20T14:07:18;1.40;;;0.90;;
2868;SDS011;1442;47.448;8.582;2022-11-20T14:09:51;1.05;;;0.75;;
2868;SDS011;1442;47.448;8.582;2022-11-20T14:12:19;0.77;;;0.77;;
2868;SDS011;1442;47.448;8.582;2022-11-20T14:14:47;3.55;;;0.73;;
2868;SDS011;1442;47.448;8.582;2022-11-20T14:17:17;1.23;;;0.93;;
2868;SDS011;1442;47.448;8.582;2022-11-20T14:19:46;0.70;;;0.70;;
2868;SDS011;1442;47.448;8.582;2022-11-20T14:22:17;0.82;;;0.80;;
2868;SDS011;1442;47.448;8.582;2022-11-20T14:24:45;1.05;;;0.88;;
2868;SDS011;1442;47.448;8.582;2022-11-20T14:27:15;7.93;;;0.90;;
2868;SDS011;1442;47.448;8.582;2022-11-20T14:29:43;0.80;;;0.60;;
2868;SDS011;1442;47.448;8.582;2022-11-20T14:32:11;0.93;;;0.50;;
2868;SDS011;1442;47.448;8.582;2022-11-20T14:34:41;2.20;;;0.93;;
2868;SDS011;1442;47.448;8.582;2022-11-20T14:37:12;1.75;;;0.85;;
2868;SDS011;1442;47.448;8.582;2022-11-20T14:39:40;1.83;;;0.80;;
2868;SDS011;1442;47.448;8.582;2022-11-20T14:42:13;2.03;;;0.80;;
2868;SDS011;1442;47.448;8.582;2022-11-20T14:44:41;0.52;;;0.52;;
2868;SDS011;1442;47.448;8.582;2022-11-20T14:47:10;3.45;;;0.93;;
2868;SDS011;1442;47.448;8.582;2022-11-20T14:49:38;1.38;;;0.60;;
2868;SDS011;1442;47.448;8.582;2022-11-20T14:52:13;2.15;;;0.70;;
2868;SDS011;1442;47.448;8.582;2022-11-20T14:54:43;0.50;;;0.50;;
2868;SDS011;1442;47.448;8.582;2022-11-20T14:57:19;1.13;;;0.70;;
2868;SDS011;1442;47.448;8.582;2022-11-20T14:59:47;1.02;;;0.60;;
2868;SDS011;1442;47.448;8.582;2022-11-20T15:02:18;0.73;;;0.50;;
2868;SDS011;1442;47.448;8.582;2022-11-20T15:04:45;1.02;;;0.52;;
2868;SDS011;1442;47.448;8.582;2022-11-20T15:07:22;1.13;;;0.75;;
2868;SDS011;1442;47.448;8.582;2022-11-20T15:09:58;2.15;;;1.00;;
2868;SDS011;1442;47.448;8.582;2022-11-20T15:12:25;1.95;;;0.50;;
2868;SDS011;1442;47.448;8.582;2022-11-20T15:14:52;1.05;;;0.70;;
2868;SDS011;1442;47.448;8.582;2022-11-20T15:17:19;0.70;;;0.60;;
2868;SDS011;1442;47.448;8.582;2022-11-20T15:19:47;3.70;;;0.68;;
2868;SDS011;1442;47.448;8.582;2022-11-20T15:22:14;0.57;;;0.55;;
2868;SDS011;1442;47.448;8.582;2022-11-20T15:24:42;0.60;;;0.60;;
2868;SDS011;1442;47.448;8.582;2022-11-20T15:27:09;2.40;;;0.88;;
2868;SDS011;1442;47.448;8.582;2022-11-20T15:29:37;1.83;;;1.05;;
2868;SDS011;1442;47.448;8.582;2022-11-20T15:32:04;4.88;;;0.82;;
2868;SDS011;1442;47.448;8.582;2022-11-20T15:34:31;6.50;;;1.10;;